createdAt,value
2023-05-01T00:00:51.928Z,88.02
2023-05-01T00:01:51.898Z,88.12
2023-05-01T00:02:52.115Z,88.22
2023-05-01T00:03:52.164Z,88.22
2023-05-01T00:04:51.919Z,88.22
2023-05-01T00:05:51.853Z,88.22
2023-05-01T00:06:51.942Z,88.12
2023-05-01T00:07:51.842Z,88.02
2023-05-01T00:08:51.812Z,88.02
2023-05-01T00:09:51.800Z,88.12
2023-05-01T00:10:51.814Z,88.12
2023-05-01T00:11:51.781Z,88.12
2023-05-01T00:12:51.770Z,88.12
2023-05-01T00:13:51.758Z,88.22
2023-05-01T00:14:51.750Z,88.22
2023-05-01T00:15:51.819Z,88.37
2023-05-01T00:16:51.801Z,88.37
2023-05-01T00:17:51.763Z,88.47
2023-05-01T00:18:51.706Z,88.47
2023-05-01T00:19:51.690Z,88.57
2023-05-01T00:20:51.708Z,88.57
2023-05-01T00:21:51.667Z,88.68
2023-05-01T00:22:51.655Z,88.57
2023-05-01T00:23:51.654Z,88.57
2023-05-01T00:24:51.649Z,88.47
2023-05-01T00:25:51.645Z,88.37
2023-05-01T00:26:51.609Z,88.37
2023-05-01T00:27:51.593Z,88.47
2023-05-01T00:28:51.598Z,88.47
2023-05-01T00:29:51.586Z,88.47
2023-05-01T00:30:51.583Z,88.47
2023-05-01T00:31:51.625Z,88.47
2023-05-01T00:32:51.595Z,88.47
2023-05-01T00:33:51.540Z,88.47
2023-05-01T00:34:51.521Z,88.57
2023-05-01T00:35:51.540Z,88.57
2023-05-01T00:36:52.208Z,88.47
2023-05-01T00:37:51.498Z,88.51
2023-05-01T00:38:51.486Z,88.61
2023-05-01T00:39:51.481Z,88.61
2023-05-01T00:40:51.456Z,88.61
2023-05-01T00:41:51.463Z,88.71
2023-05-01T00:42:51.439Z,88.71
2023-05-01T00:43:51.434Z,88.71
2023-05-01T00:44:51.418Z,88.61
2023-05-01T00:45:51.471Z,88.51
2023-05-01T00:46:51.410Z,88.51
2023-05-01T00:47:51.458Z,88.51
2023-05-01T00:48:51.385Z,88.51
2023-05-01T00:49:51.366Z,88.61
2023-05-01T00:50:51.353Z,88.51
2023-05-01T00:51:51.352Z,88.61
2023-05-01T00:52:51.326Z,88.71
2023-05-01T00:53:51.307Z,88.82
2023-05-01T00:54:51.309Z,88.82
2023-05-01T00:55:51.314Z,88.92
2023-05-01T00:56:51.298Z,88.96
2023-05-01T00:57:51.276Z,88.96
2023-05-01T00:58:51.258Z,89.07
2023-05-01T00:59:51.249Z,89.07
2023-05-01T01:00:51.280Z,89.07
2023-05-01T01:01:51.244Z,89.07
2023-05-01T01:02:51.258Z,89.17
2023-05-01T01:03:51.209Z,89.17
2023-05-01T01:04:51.339Z,89.28
2023-05-01T01:05:51.185Z,89.28
2023-05-01T01:06:51.195Z,89.28
2023-05-01T01:07:51.224Z,89.28
2023-05-01T01:08:51.150Z,89.38
2023-05-01T01:09:51.147Z,89.38
2023-05-01T01:10:51.134Z,89.38
2023-05-01T01:11:51.126Z,89.38
2023-05-01T01:12:51.121Z,89.38
2023-05-01T01:13:51.097Z,89.42
2023-05-01T01:14:51.088Z,89.32
2023-05-01T01:15:51.069Z,89.42
2023-05-01T01:16:51.087Z,89.42
2023-05-01T01:17:51.096Z,89.42
2023-05-01T01:18:51.035Z,89.42
2023-05-01T01:19:51.021Z,89.42
2023-05-01T01:20:51.023Z,89.52
2023-05-01T01:21:51.020Z,89.62
2023-05-01T01:22:50.993Z,89.62
2023-05-01T01:23:51.002Z,89.62
2023-05-01T01:24:50.970Z,89.62
2023-05-01T01:25:50.961Z,89.62
2023-05-01T01:26:50.957Z,89.62
2023-05-01T01:27:50.938Z,89.62
2023-05-01T01:28:50.921Z,89.62
2023-05-01T01:29:50.915Z,89.67
2023-05-01T01:30:50.941Z,89.77
2023-05-01T01:31:50.914Z,89.87
2023-05-01T01:32:50.884Z,89.87
2023-05-01T01:33:50.872Z,89.87
2023-05-01T01:34:50.857Z,89.87
2023-05-01T01:35:50.852Z,89.87
2023-05-01T01:36:50.860Z,89.87
2023-05-01T01:37:50.819Z,89.87
2023-05-01T01:38:50.809Z,89.98
2023-05-01T01:39:50.801Z,89.98
2023-05-01T01:40:50.797Z,90.08
2023-05-01T01:41:50.809Z,90.08
2023-05-01T01:42:50.781Z,90.19
2023-05-01T01:43:50.769Z,90.23
2023-05-01T01:44:50.747Z,90.23
2023-05-01T01:45:50.793Z,90.23
2023-05-01T01:46:50.743Z,90.23
2023-05-01T01:47:50.765Z,90.23
2023-05-01T01:48:50.712Z,90.23
2023-05-01T01:49:50.693Z,90.23
2023-05-01T01:50:50.686Z,90.23
2023-05-01T01:51:50.687Z,90.23
2023-05-01T01:52:50.668Z,90.33
2023-05-01T01:53:50.656Z,90.33
2023-05-01T01:54:50.667Z,90.23
2023-05-01T01:55:50.623Z,90.33
2023-05-01T01:56:50.641Z,90.33
2023-05-01T01:57:50.607Z,90.33
2023-05-01T01:58:50.601Z,90.33
2023-05-01T01:59:50.579Z,90.44
2023-05-01T02:00:50.569Z,90.53
2023-05-01T02:01:50.584Z,90.64
2023-05-01T02:02:50.610Z,90.74
2023-05-01T02:03:50.612Z,90.74
2023-05-01T02:04:50.529Z,90.74
2023-05-01T02:05:50.517Z,90.74
2023-05-01T02:06:50.564Z,90.74
2023-05-01T02:07:50.494Z,90.84
2023-05-01T02:08:50.478Z,90.95
2023-05-01T02:09:50.470Z,90.95
2023-05-01T02:10:50.466Z,91.05
2023-05-01T02:11:50.472Z,91.05
2023-05-01T02:12:50.439Z,91.05
2023-05-01T02:13:50.418Z,91.05
2023-05-01T02:14:50.432Z,91.05
2023-05-01T02:15:50.422Z,91.05
2023-05-01T02:16:50.410Z,91.16
2023-05-01T02:17:50.416Z,91.16
2023-05-01T02:18:50.405Z,91.09
2023-05-01T02:19:50.369Z,91.20
2023-05-01T02:20:50.358Z,91.20
2023-05-01T02:21:50.371Z,91.30
2023-05-01T02:22:50.330Z,91.20
2023-05-01T02:23:50.324Z,91.30
2023-05-01T02:24:50.299Z,91.41
2023-05-01T02:25:50.306Z,91.41
2023-05-01T02:26:50.303Z,91.30
2023-05-01T02:27:50.282Z,91.41
2023-05-01T02:28:50.261Z,91.41
2023-05-01T02:29:50.253Z,91.41
2023-05-01T02:30:50.239Z,91.41
2023-05-01T02:31:50.269Z,91.51
2023-05-01T02:32:50.276Z,91.51
2023-05-01T02:33:50.227Z,91.61
2023-05-01T02:34:50.221Z,91.61
2023-05-01T02:35:50.200Z,91.72
2023-05-01T02:36:50.190Z,91.72
2023-05-01T02:37:50.161Z,91.72
2023-05-01T02:38:50.153Z,91.72
2023-05-01T02:39:50.146Z,91.72
2023-05-01T02:40:50.154Z,91.72
2023-05-01T02:41:50.137Z,91.61
2023-05-01T02:42:50.107Z,91.51
2023-05-01T02:43:50.095Z,91.61
2023-05-01T02:44:50.087Z,91.72
2023-05-01T02:45:50.143Z,91.61
2023-05-01T02:46:50.134Z,91.41
2023-05-01T02:47:50.063Z,91.41
2023-05-01T02:48:50.053Z,91.41
2023-05-01T02:49:50.030Z,91.41
2023-05-01T02:50:50.041Z,91.30
2023-05-01T02:51:50.031Z,91.30
2023-05-01T02:52:49.995Z,91.30
2023-05-01T02:53:49.994Z,91.41
2023-05-01T02:54:49.978Z,91.51
2023-05-01T02:55:49.967Z,91.61
2023-05-01T02:56:49.972Z,91.72
2023-05-01T02:57:49.942Z,91.72
2023-05-01T02:58:49.931Z,91.82
2023-05-01T02:59:49.923Z,91.93
2023-05-01T03:00:50.308Z,91.93
2023-05-01T03:01:49.997Z,91.72
2023-05-01T03:02:49.913Z,91.72
2023-05-01T03:03:49.928Z,91.72
2023-05-01T03:04:49.871Z,91.72
2023-05-01T03:05:49.857Z,91.82
2023-05-01T03:06:49.878Z,91.93
2023-05-01T03:07:49.828Z,91.93
2023-05-01T03:08:49.826Z,91.93
2023-05-01T03:09:49.807Z,92.03
2023-05-01T03:10:49.815Z,92.03
2023-05-01T03:11:49.808Z,92.03
2023-05-01T03:12:49.780Z,92.03
2023-05-01T03:13:49.762Z,91.93
2023-05-01T03:14:49.757Z,92.03
2023-05-01T03:15:49.756Z,92.03
2023-05-01T03:16:49.830Z,92.13
2023-05-01T03:17:49.728Z,92.24
2023-05-01T03:18:49.713Z,92.13
2023-05-01T03:19:49.705Z,92.24
2023-05-01T03:20:49.684Z,92.13
2023-05-01T03:21:49.702Z,92.24
2023-05-01T03:22:49.672Z,92.24
2023-05-01T03:23:49.656Z,92.13
2023-05-01T03:24:49.635Z,92.13
2023-05-01T03:25:49.627Z,92.13
2023-05-01T03:26:49.634Z,92.13
2023-05-01T03:27:49.609Z,92.24
2023-05-01T03:28:49.595Z,92.24
2023-05-01T03:29:49.591Z,92.24
2023-05-01T03:30:49.582Z,92.24
2023-05-01T03:31:49.637Z,92.13
2023-05-01T03:32:49.594Z,92.13
2023-05-01T03:33:49.549Z,92.24
2023-05-01T03:34:49.595Z,92.24
2023-05-01T03:35:49.585Z,92.24
2023-05-01T03:36:49.506Z,92.34
2023-05-01T03:37:49.521Z,92.34
2023-05-01T03:38:49.491Z,92.24
2023-05-01T03:39:49.465Z,92.34
2023-05-01T03:40:49.459Z,92.24
2023-05-01T03:41:49.455Z,92.24
2023-05-01T03:42:49.454Z,92.24
2023-05-01T03:43:49.429Z,92.13
2023-05-01T03:44:49.432Z,92.24
2023-05-01T03:45:49.429Z,92.24
2023-05-01T03:46:49.404Z,92.13
2023-05-01T03:47:49.420Z,92.13
2023-05-01T03:48:49.377Z,92.03
2023-05-01T03:49:49.366Z,92.03
2023-05-01T03:50:49.352Z,91.88
2023-05-01T03:51:49.362Z,91.88
2023-05-01T03:52:49.341Z,91.88
2023-05-01T03:53:49.312Z,91.88
2023-05-01T03:54:49.319Z,91.67
2023-05-01T03:55:49.285Z,91.67
2023-05-01T03:56:49.292Z,91.67
2023-05-01T03:57:49.291Z,91.78
2023-05-01T03:58:49.258Z,91.67
2023-05-01T03:59:49.268Z,91.67
2023-05-01T04:00:49.255Z,91.67
2023-05-01T04:01:49.325Z,91.61
2023-05-01T04:02:49.586Z,91.61
2023-05-01T04:03:49.364Z,91.72
2023-05-01T04:04:49.211Z,91.82
2023-05-01T04:05:49.220Z,91.93
2023-05-01T04:06:49.360Z,91.93
2023-05-01T04:07:49.196Z,92.03
2023-05-01T04:08:49.163Z,92.03
2023-05-01T04:09:49.148Z,92.03
2023-05-01T04:10:49.203Z,92.03
2023-05-01T04:11:49.197Z,91.88
2023-05-01T04:12:49.223Z,91.78
2023-05-01T04:13:49.202Z,91.67
2023-05-01T04:14:49.091Z,91.57
2023-05-01T04:15:49.139Z,91.57
2023-05-01T04:16:49.077Z,91.47
2023-05-01T04:17:49.095Z,91.47
2023-05-01T04:18:49.057Z,91.47
2023-05-01T04:19:49.046Z,91.47
2023-05-01T04:20:49.021Z,91.57
2023-05-01T04:21:49.006Z,91.67
2023-05-01T04:22:49.029Z,91.67
2023-05-01T04:23:48.990Z,91.78
2023-05-01T04:24:49.002Z,91.78
2023-05-01T04:25:48.984Z,91.78
2023-05-01T04:26:48.971Z,91.67
2023-05-01T04:27:48.957Z,91.57
2023-05-01T04:28:48.934Z,91.53
2023-05-01T04:29:48.924Z,91.53
2023-05-01T04:30:48.924Z,91.53
2023-05-01T04:31:48.913Z,91.53
2023-05-01T04:32:49.000Z,91.53
2023-05-01T04:33:48.887Z,91.42
2023-05-01T04:34:48.866Z,91.42
2023-05-01T04:35:48.856Z,91.42
2023-05-01T04:36:48.864Z,91.53
2023-05-01T04:37:48.854Z,91.38
2023-05-01T04:38:48.825Z,91.38
2023-05-01T04:39:48.821Z,91.49
2023-05-01T04:40:48.814Z,91.49
2023-05-01T04:41:48.783Z,91.49
2023-05-01T04:42:48.790Z,91.49
2023-05-01T04:43:48.766Z,91.49
2023-05-01T04:44:48.755Z,91.59
2023-05-01T04:45:48.736Z,91.59
2023-05-01T04:46:48.739Z,91.59
2023-05-01T04:47:48.752Z,91.59
2023-05-01T04:48:48.718Z,91.55
2023-05-01T04:49:48.695Z,91.55
2023-05-01T04:50:48.686Z,91.44
2023-05-01T04:51:48.670Z,91.44
2023-05-01T04:52:48.681Z,91.44
2023-05-01T04:53:48.666Z,91.44
2023-05-01T04:54:48.646Z,91.44
2023-05-01T04:55:48.627Z,91.40
2023-05-01T04:56:48.616Z,91.40
2023-05-01T04:57:48.633Z,91.30
2023-05-01T04:58:48.592Z,91.30
2023-05-01T04:59:48.590Z,91.20
2023-05-01T05:00:48.582Z,91.20
2023-05-01T05:01:48.606Z,91.09
2023-05-01T05:02:48.666Z,91.05
2023-05-01T05:03:50.254Z,91.05
2023-05-01T05:04:48.538Z,91.05
2023-05-01T05:05:48.516Z,90.95
2023-05-01T05:06:48.686Z,90.84
2023-05-01T05:07:48.521Z,90.74
2023-05-01T05:08:48.485Z,90.84
2023-05-01T05:09:48.471Z,90.84
2023-05-01T05:10:48.471Z,90.80
2023-05-01T05:11:48.453Z,90.80
2023-05-01T05:12:48.465Z,90.59
2023-05-01T05:13:48.461Z,90.59
2023-05-01T05:14:48.418Z,90.49
2023-05-01T05:15:48.406Z,90.39
2023-05-01T05:16:48.453Z,90.39
2023-05-01T05:17:48.552Z,90.49
2023-05-01T05:18:48.372Z,90.49
2023-05-01T05:19:48.377Z,90.39
2023-05-01T05:20:48.353Z,90.28
2023-05-01T05:21:48.337Z,90.14
2023-05-01T05:22:48.341Z,90.35
2023-05-01T05:23:48.321Z,90.25
2023-05-01T05:24:48.300Z,90.25
2023-05-01T05:25:48.296Z,90.25
2023-05-01T05:26:48.285Z,90.14
2023-05-01T05:27:48.289Z,90.14
2023-05-01T05:28:48.282Z,90.04
2023-05-01T05:29:48.269Z,90.04
2023-05-01T05:30:48.242Z,89.94
2023-05-01T05:31:48.293Z,89.94
2023-05-01T05:32:48.316Z,89.89
2023-05-01T05:33:48.219Z,89.79
2023-05-01T05:34:48.204Z,89.79
2023-05-01T05:35:48.193Z,89.89
2023-05-01T05:36:48.181Z,89.79
2023-05-01T05:37:48.180Z,89.89
2023-05-01T05:38:48.163Z,89.89
2023-05-01T05:39:48.149Z,89.89
2023-05-01T05:40:48.134Z,90.00
2023-05-01T05:41:48.120Z,90.10
2023-05-01T05:42:48.239Z,90.06
2023-05-01T05:43:48.101Z,90.06
2023-05-01T05:44:48.089Z,90.16
2023-05-01T05:45:48.088Z,89.95
2023-05-01T05:46:48.071Z,89.95
2023-05-01T05:47:48.109Z,89.95
2023-05-01T05:48:48.044Z,89.85
2023-05-01T05:49:48.033Z,89.75
2023-05-01T05:50:48.030Z,89.71
2023-05-01T05:51:48.018Z,89.61
2023-05-01T05:52:48.015Z,89.71
2023-05-01T05:53:47.986Z,90.22
2023-05-01T05:54:47.982Z,90.12
2023-05-01T05:55:47.966Z,89.77
2023-05-01T05:56:47.959Z,89.36
2023-05-01T05:57:47.958Z,89.36
2023-05-01T05:58:47.931Z,89.36
2023-05-01T05:59:47.927Z,89.36
2023-05-01T06:00:47.924Z,89.22
2023-05-01T06:01:47.910Z,89.11
2023-05-01T06:02:47.997Z,88.90
2023-05-01T06:03:47.930Z,89.07
2023-05-01T06:04:47.870Z,88.96
2023-05-01T06:05:47.908Z,89.17
2023-05-01T06:06:47.889Z,89.17
2023-05-01T06:07:47.870Z,89.38
2023-05-01T06:08:47.832Z,88.51
2023-05-01T06:09:47.822Z,88.51
2023-05-01T06:10:47.811Z,89.13
2023-05-01T06:11:47.796Z,89.44
2023-05-01T06:12:51.027Z,89.40
2023-05-01T06:13:47.772Z,88.68
2023-05-01T06:14:47.775Z,88.89
2023-05-01T06:15:47.796Z,88.89
2023-05-01T06:16:47.728Z,88.84
2023-05-01T06:17:47.749Z,89.36
2023-05-01T06:18:47.719Z,88.74
2023-05-01T06:19:47.706Z,87.82
2023-05-01T06:20:47.698Z,88.08
2023-05-01T06:21:47.683Z,88.29
2023-05-01T06:22:47.691Z,88.39
2023-05-01T06:23:47.653Z,87.16
2023-05-01T06:24:47.656Z,87.12
2023-05-01T06:25:47.632Z,87.12
2023-05-01T06:26:47.625Z,87.08
2023-05-01T06:27:47.624Z,87.08
2023-05-01T06:28:47.607Z,86.57
2023-05-01T06:29:47.584Z,84.78
2023-05-01T06:30:47.575Z,85.39
2023-05-01T06:31:47.594Z,84.99
2023-05-01T06:32:47.590Z,83.92
2023-05-01T06:33:47.552Z,82.59
2023-05-01T06:34:47.537Z,81.67
2023-05-01T06:35:47.528Z,81.94
2023-05-01T06:36:47.518Z,82.86
2023-05-01T06:37:47.575Z,78.86
2023-05-01T06:38:47.490Z,81.08
2023-05-01T06:39:47.475Z,82.10
2023-05-01T06:40:47.474Z,82.27
2023-05-01T06:41:47.475Z,81.96
2023-05-01T06:42:47.460Z,81.76
2023-05-01T06:43:47.429Z,82.03
2023-05-01T06:44:47.423Z,81.93
2023-05-01T06:45:47.408Z,82.13
2023-05-01T06:46:47.427Z,82.13
2023-05-01T06:47:47.452Z,80.76
2023-05-01T06:48:47.377Z,80.66
2023-05-01T06:49:47.367Z,75.85
2023-05-01T06:50:47.355Z,74.63
2023-05-01T06:51:47.340Z,76.53
2023-05-01T06:52:47.347Z,76.84
2023-05-01T06:53:47.320Z,74.76
2023-05-01T06:54:47.307Z,75.37
2023-05-01T06:55:47.290Z,75.68
2023-05-01T06:56:47.293Z,76.26
2023-05-01T06:57:47.289Z,73.60
2023-05-01T06:58:47.273Z,70.03
2023-05-01T06:59:47.249Z,72.48
2023-05-01T07:00:47.248Z,75.04
2023-05-01T07:01:47.264Z,71.73
2023-05-01T07:02:47.321Z,70.61
2023-05-01T07:03:47.206Z,67.45
2023-05-01T07:04:47.203Z,68.57
2023-05-01T07:05:47.190Z,69.35
2023-05-01T07:06:47.300Z,70.98
2023-05-01T07:07:57.959Z,68.13
2023-05-01T07:08:47.172Z,68.61
2023-05-01T07:09:47.168Z,71.97
2023-05-01T07:10:47.136Z,63.92
2023-05-01T07:11:47.121Z,67.05
2023-05-01T07:12:47.127Z,67.46
2023-05-01T07:13:47.103Z,69.39
2023-05-01T07:14:47.091Z,67.05
2023-05-01T07:15:47.071Z,70.51
2023-05-01T07:16:47.168Z,70.31
2023-05-01T07:17:47.102Z,68.07
2023-05-01T07:18:47.045Z,65.31
2023-05-01T07:19:47.040Z,66.13
2023-05-01T07:20:47.026Z,68.98
2023-05-01T07:21:47.011Z,68.44
2023-05-01T07:22:47.031Z,68.04
2023-05-01T07:23:46.988Z,69.87
2023-05-01T07:24:46.986Z,69.67
2023-05-01T07:25:46.961Z,68.04
2023-05-01T07:26:46.948Z,70.07
2023-05-01T07:27:46.960Z,67.12
2023-05-01T07:28:46.930Z,67.93
2023-05-01T07:29:46.951Z,64.57
2023-05-01T07:30:46.905Z,67.29
2023-05-01T07:31:46.928Z,68.21
2023-05-01T07:32:46.925Z,65.56
2023-05-01T07:33:46.872Z,67.19
2023-05-01T07:34:46.862Z,67.36
2023-05-01T07:35:46.861Z,65.63
2023-05-01T07:36:46.848Z,66.24
2023-05-01T07:37:46.849Z,63.29
2023-05-01T07:38:46.816Z,65.12
2023-05-01T07:39:46.804Z,63.46
2023-05-01T07:40:46.805Z,63.57
2023-05-01T07:41:46.793Z,63.16
2023-05-01T07:42:46.797Z,66.00
2023-05-01T07:43:46.761Z,66.31
2023-05-01T07:44:46.746Z,63.36
2023-05-01T07:45:46.774Z,63.64
2023-05-01T07:46:46.733Z,65.47
2023-05-01T07:47:46.762Z,64.04
2023-05-01T07:48:46.712Z,62.93
2023-05-01T07:49:46.687Z,62.72
2023-05-01T07:50:46.682Z,64.35
2023-05-01T07:51:46.675Z,63.84
2023-05-01T07:52:46.677Z,64.04
2023-05-01T07:53:46.658Z,61.71
2023-05-01T07:54:46.648Z,63.02
2023-05-01T07:55:46.622Z,63.33
2023-05-01T07:56:47.980Z,61.98
2023-05-01T07:57:46.622Z,64.32
2023-05-01T07:58:46.598Z,62.18
2023-05-01T07:59:46.587Z,59.64
2023-05-01T08:00:46.578Z,61.17
2023-05-01T08:01:46.557Z,58.60
2023-05-01T08:02:46.614Z,59.11
2023-05-01T08:03:48.704Z,59.62
2023-05-01T08:04:46.565Z,60.60
2023-05-01T08:05:46.518Z,60.10
2023-05-01T08:06:46.541Z,60.60
2023-05-01T08:07:46.503Z,59.36
2023-05-01T08:08:46.497Z,60.68
2023-05-01T08:09:46.468Z,62.71
2023-05-01T08:10:46.461Z,56.11
2023-05-01T08:11:46.446Z,57.64
2023-05-01T08:12:46.456Z,58.04
2023-05-01T08:13:46.447Z,60.35
2023-05-01T08:14:46.421Z,58.11
2023-05-01T08:15:46.477Z,55.68
2023-05-01T08:16:46.526Z,57.91
2023-05-01T08:17:46.416Z,58.31
2023-05-01T08:18:46.480Z,56.59
2023-05-01T08:19:46.381Z,56.46
2023-05-01T08:20:46.348Z,58.09
2023-05-01T08:21:46.335Z,57.17
2023-05-01T08:22:46.333Z,57.07
2023-05-01T08:23:46.343Z,56.77
2023-05-01T08:24:46.304Z,56.16
2023-05-01T08:25:46.325Z,57.68
2023-05-01T08:26:46.311Z,58.36
2023-05-01T08:27:46.307Z,57.96
2023-05-01T08:28:46.273Z,56.74
2023-05-01T08:29:46.254Z,55.93
2023-05-01T08:30:46.252Z,56.74
2023-05-01T08:31:46.306Z,56.95
2023-05-01T08:32:46.241Z,60.28
2023-05-01T08:33:46.221Z,58.36
2023-05-01T08:34:46.198Z,56.95
2023-05-01T08:35:46.195Z,56.13
2023-05-01T08:36:46.186Z,58.47
2023-05-01T08:37:46.158Z,60.49
2023-05-01T08:38:46.166Z,58.64
2023-05-01T08:39:46.144Z,58.54
2023-05-01T08:40:46.128Z,58.34
2023-05-01T08:41:46.137Z,59.05
2023-05-01T08:42:46.111Z,60.53
2023-05-01T08:43:46.116Z,54.36
2023-05-01T08:44:46.090Z,56.48
2023-05-01T08:45:46.074Z,57.90
2023-05-01T08:46:46.212Z,54.36
2023-05-01T08:47:46.085Z,55.88
2023-05-01T08:48:46.055Z,58.61
2023-05-01T08:49:46.026Z,55.17
2023-05-01T08:50:46.027Z,52.74
2023-05-01T08:51:46.007Z,54.94
2023-05-01T08:52:46.003Z,57.37
2023-05-01T08:53:46.011Z,55.44
2023-05-01T08:54:45.976Z,54.23
2023-05-01T08:55:45.964Z,52.79
2023-05-01T08:56:45.952Z,53.80
2023-05-01T08:57:45.938Z,53.40
2023-05-01T08:58:45.945Z,52.28
2023-05-01T08:59:45.916Z,55.69
2023-05-01T09:00:45.904Z,54.79
2023-05-01T09:01:45.946Z,52.67
2023-05-01T09:02:45.902Z,53.38
2023-05-01T09:03:45.945Z,53.45
2023-05-01T09:04:45.858Z,52.34
2023-05-01T09:05:45.846Z,53.45
2023-05-01T09:06:45.896Z,55.98
2023-05-01T09:07:45.846Z,54.66
2023-05-01T09:08:45.832Z,54.05
2023-05-01T09:09:45.810Z,54.74
2023-05-01T09:10:45.793Z,56.35
2023-05-01T09:11:45.781Z,56.05
2023-05-01T09:12:45.759Z,53.25
2023-05-01T09:13:45.777Z,52.54
2023-05-01T09:14:45.752Z,53.55
2023-05-01T09:15:45.749Z,51.83
2023-05-01T09:16:45.776Z,51.83
2023-05-01T09:17:45.778Z,51.73
2023-05-01T09:18:45.730Z,51.32
2023-05-01T09:19:45.696Z,52.54
2023-05-01T09:20:45.688Z,52.01
2023-05-01T09:21:45.675Z,52.82
2023-05-01T09:22:45.658Z,54.00
2023-05-01T09:23:45.704Z,52.29
2023-05-01T09:24:45.643Z,53.30
2023-05-01T09:25:45.629Z,48.96
2023-05-01T09:26:45.613Z,50.37
2023-05-01T09:27:45.606Z,51.98
2023-05-01T09:28:45.623Z,54.21
2023-05-01T09:29:45.581Z,49.79
2023-05-01T09:30:45.575Z,50.59
2023-05-01T09:31:45.709Z,51.18
2023-05-01T09:32:45.591Z,53.20
2023-05-01T09:33:45.552Z,51.58
2023-05-01T09:34:45.560Z,50.87
2023-05-01T09:35:45.512Z,50.95
2023-05-01T09:36:45.506Z,52.67
2023-05-01T09:37:47.494Z,53.07
2023-05-01T09:38:45.490Z,52.26
2023-05-01T09:39:45.468Z,52.44
2023-05-01T09:40:45.485Z,52.94
2023-05-01T09:41:45.448Z,52.14
2023-05-01T09:42:45.442Z,50.82
2023-05-01T09:43:45.441Z,50.12
2023-05-01T09:44:45.490Z,51.93
2023-05-01T09:45:45.404Z,50.32
2023-05-01T09:46:45.437Z,49.72
2023-05-01T09:47:45.412Z,51.73
2023-05-01T09:48:45.390Z,48.61
2023-05-01T09:49:45.358Z,49.52
2023-05-01T09:50:45.342Z,48.21
2023-05-01T09:51:45.327Z,50.80
2023-05-01T09:52:45.432Z,50.90
2023-05-01T09:53:45.323Z,47.78
2023-05-01T09:54:45.366Z,46.69
2023-05-01T09:55:45.291Z,47.40
2023-05-01T09:56:46.105Z,47.58
2023-05-01T09:57:45.280Z,48.99
2023-05-01T09:58:45.319Z,49.49
2023-05-01T09:59:45.250Z,49.77
2023-05-01T10:00:45.257Z,49.07
2023-05-01T10:01:45.280Z,49.16
2023-05-01T10:02:45.337Z,48.16
2023-05-01T10:03:45.351Z,47.05
2023-05-01T10:04:45.199Z,45.34
2023-05-01T10:05:45.179Z,46.14
2023-05-01T10:06:45.233Z,47.33
2023-05-01T10:07:45.160Z,48.14
2023-05-01T10:08:45.161Z,44.79
2023-05-01T10:09:45.140Z,45.70
2023-05-01T10:10:45.122Z,43.48
2023-05-01T10:11:45.112Z,44.29
2023-05-01T10:12:45.110Z,44.49
2023-05-01T10:13:45.112Z,44.61
2023-05-01T10:14:45.082Z,45.42
2023-05-01T10:15:45.066Z,42.90
2023-05-01T10:16:45.087Z,44.61
2023-05-01T10:17:45.097Z,42.80
2023-05-01T10:18:45.071Z,43.60
2023-05-01T10:19:45.025Z,43.40
2023-05-01T10:20:45.022Z,45.52
2023-05-01T10:21:45.028Z,46.83
2023-05-01T10:22:45.000Z,47.31
2023-05-01T10:23:44.998Z,47.91
2023-05-01T10:24:44.978Z,47.31
2023-05-01T10:25:44.968Z,46.30
2023-05-01T10:26:44.988Z,45.70
2023-05-01T10:27:44.975Z,43.99
2023-05-01T10:28:44.944Z,46.10
2023-05-01T10:29:44.922Z,44.59
2023-05-01T10:30:44.971Z,44.59
2023-05-01T10:31:44.935Z,45.39
2023-05-01T10:32:44.919Z,44.09
2023-05-01T10:33:44.887Z,44.07
2023-05-01T10:34:44.884Z,42.76
2023-05-01T10:35:44.858Z,44.04
2023-05-01T10:36:44.867Z,44.24
2023-05-01T10:37:44.834Z,42.13
2023-05-01T10:38:44.831Z,42.35
2023-05-01T10:39:44.825Z,40.95
2023-05-01T10:40:44.796Z,42.44
2023-05-01T10:41:44.778Z,43.24
2023-05-01T10:42:44.778Z,42.01
2023-05-01T10:43:44.758Z,42.52
2023-05-01T10:44:44.746Z,43.82
2023-05-01T10:45:44.767Z,43.10
2023-05-01T10:46:44.760Z,45.21
2023-05-01T10:47:44.746Z,41.69
2023-05-01T10:48:44.711Z,41.29
2023-05-01T10:49:44.798Z,42.30
2023-05-01T10:50:44.691Z,39.98
2023-05-01T10:51:44.683Z,42.82
2023-05-01T10:52:44.660Z,44.12
2023-05-01T10:53:44.666Z,42.61
2023-05-01T10:54:44.651Z,43.42
2023-05-01T10:55:44.648Z,44.40
2023-05-01T10:56:44.646Z,43.00
2023-05-01T10:57:44.608Z,44.48
2023-05-01T10:58:44.595Z,45.09
2023-05-01T10:59:44.604Z,43.66
2023-05-01T11:00:44.581Z,40.35
2023-05-01T11:01:44.594Z,40.75
2023-05-01T11:02:44.625Z,41.25
2023-05-01T11:03:44.535Z,40.06
2023-05-01T11:04:44.528Z,38.48
2023-05-01T11:05:44.566Z,39.00
2023-05-01T11:06:44.613Z,39.60
2023-05-01T11:07:44.490Z,41.31
2023-05-01T11:08:45.502Z,39.50
2023-05-01T11:09:44.475Z,40.89
2023-05-01T11:10:44.461Z,39.98
2023-05-01T11:11:44.450Z,40.59
2023-05-01T11:12:44.458Z,41.57
2023-05-01T11:13:44.428Z,40.37
2023-05-01T11:14:44.413Z,37.76
2023-05-01T11:15:44.398Z,38.38
2023-05-01T11:16:44.453Z,39.38
2023-05-01T11:17:44.517Z,39.00
2023-05-01T11:18:44.394Z,39.40
2023-05-01T11:19:44.354Z,39.30
2023-05-01T11:20:44.353Z,40.69
2023-05-01T11:21:44.335Z,40.11
2023-05-01T11:22:44.326Z,41.69
2023-05-01T11:23:44.334Z,41.69
2023-05-01T11:24:44.310Z,41.37
2023-05-01T11:25:44.289Z,40.87
2023-05-01T11:26:44.282Z,41.17
2023-05-01T11:27:44.273Z,40.65
2023-05-01T11:28:44.273Z,40.43
2023-05-01T11:29:44.255Z,39.83
2023-05-01T11:30:44.245Z,39.51
2023-05-01T11:31:44.270Z,39.81
2023-05-01T11:32:44.260Z,41.21
2023-05-01T11:33:44.216Z,39.49
2023-05-01T11:34:44.197Z,40.09
2023-05-01T11:35:44.179Z,40.97
2023-05-01T11:36:44.174Z,40.37
2023-05-01T11:37:44.181Z,40.69
2023-05-01T11:38:44.162Z,41.89
2023-05-01T11:39:44.134Z,41.99
2023-05-01T11:40:44.123Z,41.89
2023-05-01T11:41:44.134Z,41.89
2023-05-01T11:42:44.103Z,40.69
2023-05-01T11:43:44.112Z,41.89
2023-05-01T11:44:44.079Z,43.30
2023-05-01T11:45:44.093Z,41.29
2023-05-01T11:46:44.058Z,41.19
2023-05-01T11:47:44.144Z,43.19
2023-05-01T11:48:44.059Z,41.69
2023-05-01T11:49:44.029Z,41.49
2023-05-01T11:50:44.014Z,42.30
2023-05-01T11:51:44.001Z,39.39
2023-05-01T11:52:44.067Z,38.49
2023-05-01T11:53:43.996Z,39.59
2023-05-01T11:54:43.969Z,38.49
2023-05-01T11:55:43.963Z,38.79
2023-05-01T11:56:43.973Z,39.09
2023-05-01T11:57:43.946Z,39.89
2023-05-01T11:58:43.943Z,39.87
2023-05-01T11:59:43.909Z,40.25
2023-05-01T12:00:43.942Z,39.65
2023-05-01T12:01:43.899Z,38.87
2023-05-01T12:02:50.006Z,39.47
2023-05-01T12:03:43.991Z,41.38
2023-05-01T12:04:43.891Z,40.19
2023-05-01T12:05:43.862Z,39.49
2023-05-01T12:06:44.042Z,39.39
2023-05-01T12:07:43.827Z,38.59
2023-05-01T12:08:43.839Z,39.57
2023-05-01T12:09:43.812Z,39.97
2023-05-01T12:10:43.985Z,41.35
2023-05-01T12:11:43.794Z,41.05
2023-05-01T12:12:43.775Z,37.65
2023-05-01T12:13:43.795Z,39.75
2023-05-01T12:14:43.754Z,38.27
2023-05-01T12:15:43.759Z,40.55
2023-05-01T12:16:43.778Z,40.05
2023-05-01T12:17:43.794Z,37.45
2023-05-01T12:18:43.754Z,38.15
2023-05-01T12:19:43.704Z,36.76
2023-05-01T12:20:43.695Z,40.37
2023-05-01T12:21:43.670Z,41.35
2023-05-01T12:22:43.664Z,39.05
2023-05-01T12:23:43.680Z,39.45
2023-05-01T12:24:43.664Z,40.53
2023-05-01T12:25:43.636Z,39.25
2023-05-01T12:26:43.637Z,38.25
2023-05-01T12:27:43.611Z,37.95
2023-05-01T12:28:43.624Z,39.55
2023-05-01T12:29:43.598Z,37.95
2023-05-01T12:30:43.582Z,37.95
2023-05-01T12:31:43.621Z,39.65
2023-05-01T12:32:43.658Z,39.33
2023-05-01T12:33:43.555Z,40.53
2023-05-01T12:34:43.533Z,39.33
2023-05-01T12:35:43.519Z,40.71
2023-05-01T12:36:43.512Z,40.31
2023-05-01T12:37:43.505Z,37.53
2023-05-01T12:38:43.520Z,38.35
2023-05-01T12:39:43.479Z,37.65
2023-05-01T12:40:43.493Z,39.75
2023-05-01T12:41:43.473Z,38.95
2023-05-01T12:42:43.460Z,39.95
2023-05-01T12:43:44.405Z,39.43
2023-05-01T12:44:43.423Z,40.53
2023-05-01T12:45:43.411Z,39.83
2023-05-01T12:46:43.407Z,42.02
2023-05-01T12:47:43.421Z,41.61
2023-05-01T12:48:43.410Z,40.19
2023-05-01T12:49:43.382Z,39.50
2023-05-01T12:50:44.748Z,37.41
2023-05-01T12:51:43.364Z,37.61
2023-05-01T12:52:43.333Z,39.11